sensor_id;sensor_type;location;lat;lon;timestamp;pressure;altitude;pressure_sealevel;temperature;humidity
49044;BME280;34860;48.066;14.124;2023-01-29T00:00:53;97501.91;;;0.02;76.51
49044;BME280;34860;48.066;14.124;2023-01-29T00:03:41;97505.34;;;-0.01;76.41
49044;BME280;34860;48.066;14.124;2023-01-29T00:06:29;97501.81;;;-0.02;76.66
49044;BME280;34860;48.066;14.124;2023-01-29T00:09:19;97499.88;;;-0.01;76.61
49044;BME280;34860;48.066;14.124;2023-01-29T00:12:07;97493.28;;;0.00;76.56
49044;BME280;34860;48.066;14.124;2023-01-29T00:14:55;97489.38;;;0.01;76.51
49044;BME280;34860;48.066;14.124;2023-01-29T00:17:43;97493.38;;;0.04;76.62
49044;BME280;34860;48.066;14.124;2023-01-29T00:20:31;97496.56;;;0.06;76.62
49044;BME280;34860;48.066;14.124;2023-01-29T00:23:20;97495.28;;;0.03;76.67
49044;BME280;34860;48.066;14.124;2023-01-29T00:26:11;97496.19;;;0.07;76.28
49044;BME280;34860;48.066;14.124;2023-01-29T00:29:02;97500.75;;;0.03;76.42
49044;BME280;34860;48.066;14.124;2023-01-29T00:31:51;97499.53;;;0.01;76.53
49044;BME280;34860;48.066;14.124;2023-01-29T00:34:39;97507.72;;;0.01;76.57
49044;BME280;34860;48.066;14.124;2023-01-29T00:37:27;97506.94;;;0.00;76.66
49044;BME280;34860;48.066;14.124;2023-01-29T00:40:15;97497.59;;;0.01;76.58
49044;BME280;34860;48.066;14.124;2023-01-29T00:43:06;97496.56;;;0.06;76.56
49044;BME280;34860;48.066;14.124;2023-01-29T00:46:11;97495.75;;;0.05;76.56
49044;BME280;34860;48.066;14.124;2023-01-29T00:49:00;97502.72;;;0.03;76.60
49044;BME280;34860;48.066;14.124;2023-01-29T00:51:48;97501.22;;;0.05;76.62
49044;BME280;34860;48.066;14.124;2023-01-29T00:54:51;97502.38;;;0.04;76.44
49044;BME280;34860;48.066;14.124;2023-01-29T00:57:39;97500.41;;;0.05;76.56
49044;BME280;34860;48.066;14.124;2023-01-29T01:00:28;97508.88;;;-0.01;76.64
49044;BME280;34860;48.066;14.124;2023-01-29T01:03:16;97508.41;;;-0.03;76.65
49044;BME280;34860;48.066;14.124;2023-01-29T01:06:07;97514.13;;;-0.08;76.74
49044;BME280;34860;48.066;14.124;2023-01-29T01:08:56;97514.56;;;-0.06;76.74
49044;BME280;34860;48.066;14.124;2023-01-29T01:12:01;97510.72;;;-0.05;76.65
49044;BME280;34860;48.066;14.124;2023-01-29T01:14:49;97507.28;;;-0.02;76.57
49044;BME280;34860;48.066;14.124;2023-01-29T01:17:39;97508.97;;;0.03;76.62
49044;BME280;34860;48.066;14.124;2023-01-29T01:20:29;97514.19;;;0.08;76.38
49044;BME280;34860;48.066;14.124;2023-01-29T01:23:18;97509.88;;;0.07;76.49
49044;BME280;34860;48.066;14.124;2023-01-29T01:26:08;97511.34;;;0.05;76.54
49044;BME280;34860;48.066;14.124;2023-01-29T01:28:57;97505.88;;;0.05;76.61
49044;BME280;34860;48.066;14.124;2023-01-29T01:31:45;97510.56;;;0.04;76.54
49044;BME280;34860;48.066;14.124;2023-01-29T01:34:35;97505.31;;;0.11;76.66
49044;BME280;34860;48.066;14.124;2023-01-29T01:37:22;97501.88;;;0.14;76.51
49044;BME280;34860;48.066;14.124;2023-01-29T01:40:14;97503.31;;;0.24;76.50
49044;BME280;34860;48.066;14.124;2023-01-29T01:43:04;97500.59;;;0.24;76.32
49044;BME280;34860;48.066;14.124;2023-01-29T01:45:52;97507.75;;;0.29;76.51
49044;BME280;34860;48.066;14.124;2023-01-29T01:48:41;97508.53;;;0.29;76.24
49044;BME280;34860;48.066;14.124;2023-01-29T01:51:35;97503.66;;;0.23;76.32
49044;BME280;34860;48.066;14.124;2023-01-29T01:54:27;97503.53;;;0.19;76.46
49044;BME280;34860;48.066;14.124;2023-01-29T01:57:20;97505.06;;;0.16;76.38
49044;BME280;34860;48.066;14.124;2023-01-29T02:00:15;97503.00;;;0.13;76.52
49044;BME280;34860;48.066;14.124;2023-01-29T02:03:05;97499.94;;;0.15;76.59
49044;BME280;34860;48.066;14.124;2023-01-29T02:06:11;97497.28;;;0.18;76.46
49044;BME280;34860;48.066;14.124;2023-01-29T02:09:19;97493.44;;;0.20;76.46
49044;BME280;34860;48.066;14.124;2023-01-29T02:12:19;97491.91;;;0.22;76.34
49044;BME280;34860;48.066;14.124;2023-01-29T02:15:09;97493.53;;;0.23;76.45
49044;BME280;34860;48.066;14.124;2023-01-29T02:17:57;97494.66;;;0.22;76.44
49044;BME280;34860;48.066;14.124;2023-01-29T02:20:49;97493.97;;;0.25;76.44
49044;BME280;34860;48.066;14.124;2023-01-29T02:24:02;97492.72;;;0.23;76.41
49044;BME280;34860;48.066;14.124;2023-01-29T02:27:04;97495.91;;;0.25;76.40
49044;BME280;34860;48.066;14.124;2023-01-29T02:30:02;97500.25;;;0.26;76.46
49044;BME280;34860;48.066;14.124;2023-01-29T02:32:58;97494.78;;;0.26;76.40
49044;BME280;34860;48.066;14.124;2023-01-29T02:35:55;97510.81;;;0.27;76.31
49044;BME280;34860;48.066;14.124;2023-01-29T02:38:49;97511.53;;;0.24;76.20
49044;BME280;34860;48.066;14.124;2023-01-29T02:41:43;97521.22;;;0.22;76.39
49044;BME280;34860;48.066;14.124;2023-01-29T02:44:36;97518.28;;;0.14;76.51
49044;BME280;34860;48.066;14.124;2023-01-29T02:47:29;97524.53;;;0.15;76.52
49044;BME280;34860;48.066;14.124;2023-01-29T02:50:25;97515.91;;;0.13;76.63
49044;BME280;34860;48.066;14.124;2023-01-29T02:53:18;97520.56;;;0.12;76.66
49044;BME280;34860;48.066;14.124;2023-01-29T02:56:14;97521.25;;;0.09;76.60
49044;BME280;34860;48.066;14.124;2023-01-29T02:59:07;97531.72;;;0.07;76.57
49044;BME280;34860;48.066;14.124;2023-01-29T03:02:01;97526.16;;;0.04;76.61
49044;BME280;34860;48.066;14.124;2023-01-29T03:04:59;97530.13;;;0.06;76.66
49044;BME280;34860;48.066;14.124;2023-01-29T03:07:52;97529.44;;;0.09;76.69
49044;BME280;34860;48.066;14.124;2023-01-29T03:10:52;97533.69;;;0.07;76.65
49044;BME280;34860;48.066;14.124;2023-01-29T03:13:44;97539.03;;;0.03;76.59
49044;BME280;34860;48.066;14.124;2023-01-29T03:16:37;97532.41;;;0.04;76.63
49044;BME280;34860;48.066;14.124;2023-01-29T03:19:30;97525.91;;;0.09;76.56
49044;BME280;34860;48.066;14.124;2023-01-29T03:22:29;97523.88;;;0.06;76.43
49044;BME280;34860;48.066;14.124;2023-01-29T03:25:20;97521.84;;;0.03;76.50
49044;BME280;34860;48.066;14.124;2023-01-29T03:28:29;97522.19;;;0.01;76.60
49044;BME280;34860;48.066;14.124;2023-01-29T03:31:34;97526.84;;;0.01;76.51
49044;BME280;34860;48.066;14.124;2023-01-29T03:34:45;97522.88;;;-0.02;76.59
49044;BME280;34860;48.066;14.124;2023-01-29T03:37:38;97531.88;;;-0.02;76.67
49044;BME280;34860;48.066;14.124;2023-01-29T03:40:35;97533.91;;;0.02;76.66
49044;BME280;34860;48.066;14.124;2023-01-29T03:43:31;97525.00;;;0.05;76.50
49044;BME280;34860;48.066;14.124;2023-01-29T03:46:26;97512.25;;;0.09;76.33
49044;BME280;34860;48.066;14.124;2023-01-29T03:49:22;97511.00;;;0.06;76.41
49044;BME280;34860;48.066;14.124;2023-01-29T03:52:17;97508.75;;;0.08;76.46
49044;BME280;34860;48.066;14.124;2023-01-29T03:55:15;97504.97;;;0.13;76.53
49044;BME280;34860;48.066;14.124;2023-01-29T03:58:14;97509.38;;;0.17;76.44
49044;BME280;34860;48.066;14.124;2023-01-29T04:01:09;97505.84;;;0.17;76.41
49044;BME280;34860;48.066;14.124;2023-01-29T04:04:04;97498.34;;;0.14;76.43
49044;BME280;34860;48.066;14.124;2023-01-29T04:07:00;97500.38;;;0.17;76.46
49044;BME280;34860;48.066;14.124;2023-01-29T04:09:54;97499.59;;;0.16;76.48
49044;BME280;34860;48.066;14.124;2023-01-29T04:12:47;97490.56;;;0.16;76.45
49044;BME280;34860;48.066;14.124;2023-01-29T04:15:40;97499.94;;;0.15;76.39
49044;BME280;34860;48.066;14.124;2023-01-29T04:18:29;97494.03;;;0.13;76.54
49044;BME280;34860;48.066;14.124;2023-01-29T04:21:29;97491.66;;;0.11;76.43
49044;BME280;34860;48.066;14.124;2023-01-29T04:24:18;97484.94;;;0.09;76.47
49044;BME280;34860;48.066;14.124;2023-01-29T04:27:22;97491.00;;;0.02;76.59
49044;BME280;34860;48.066;14.124;2023-01-29T04:30:22;97492.81;;;-0.02;76.67
49044;BME280;34860;48.066;14.124;2023-01-29T04:33:21;97492.03;;;-0.03;76.75
49044;BME280;34860;48.066;14.124;2023-01-29T04:36:23;97493.50;;;-0.05;76.76
49044;BME280;34860;48.066;14.124;2023-01-29T04:39:17;97482.13;;;-0.07;76.66
49044;BME280;34860;48.066;14.124;2023-01-29T04:42:12;97481.69;;;-0.09;76.69
49044;BME280;34860;48.066;14.124;2023-01-29T04:45:04;97480.78;;;-0.13;76.65
49044;BME280;34860;48.066;14.124;2023-01-29T04:48:03;97493.22;;;-0.16;76.68
49044;BME280;34860;48.066;14.124;2023-01-29T04:50:57;97498.56;;;-0.20;76.76
49044;BME280;34860;48.066;14.124;2023-01-29T04:53:56;97497.31;;;-0.22;76.84
49044;BME280;34860;48.066;14.124;2023-01-29T04:56:50;97502.31;;;-0.24;76.94
49044;BME280;34860;48.066;14.124;2023-01-29T04:59:43;97503.00;;;-0.27;76.78
49044;BME280;34860;48.066;14.124;2023-01-29T05:02:36;97504.16;;;-0.28;76.75
49044;BME280;34860;48.066;14.124;2023-01-29T05:05:27;97511.19;;;-0.27;76.73
49044;BME280;34860;48.066;14.124;2023-01-29T05:08:18;97513.38;;;-0.33;76.84
49044;BME280;34860;48.066;14.124;2023-01-29T05:11:07;97515.69;;;-0.35;76.77
49044;BME280;34860;48.066;14.124;2023-01-29T05:13:55;97521.94;;;-0.34;76.60
49044;BME280;34860;48.066;14.124;2023-01-29T05:16:46;97514.84;;;-0.35;76.80
49044;BME280;34860;48.066;14.124;2023-01-29T05:19:36;97519.19;;;-0.34;76.62
49044;BME280;34860;48.066;14.124;2023-01-29T05:22:25;97510.56;;;-0.37;76.81
49044;BME280;34860;48.066;14.124;2023-01-29T05:25:20;97515.69;;;-0.35;76.67
49044;BME280;34860;48.066;14.124;2023-01-29T05:28:09;97517.16;;;-0.38;76.67
49044;BME280;34860;48.066;14.124;2023-01-29T05:31:01;97517.50;;;-0.39;76.65
49044;BME280;34860;48.066;14.124;2023-01-29T05:33:50;97512.38;;;-0.41;76.76
49044;BME280;34860;48.066;14.124;2023-01-29T05:36:38;97513.50;;;-0.42;76.72
49044;BME280;34860;48.066;14.124;2023-01-29T05:39:27;97514.75;;;-0.39;76.73
49044;BME280;34860;48.066;14.124;2023-01-29T05:42:15;97510.56;;;-0.37;76.71
49044;BME280;34860;48.066;14.124;2023-01-29T05:45:04;97514.06;;;-0.36;76.68
49044;BME280;34860;48.066;14.124;2023-01-29T05:47:54;97513.38;;;-0.33;76.76
49044;BME280;34860;48.066;14.124;2023-01-29T05:50:42;97515.78;;;-0.31;76.63
49044;BME280;34860;48.066;14.124;2023-01-29T05:53:31;97512.59;;;-0.33;76.59
49044;BME280;34860;48.066;14.124;2023-01-29T05:56:21;97508.63;;;-0.36;76.68
49044;BME280;34860;48.066;14.124;2023-01-29T05:59:09;97510.22;;;-0.35;76.68
49044;BME280;34860;48.066;14.124;2023-01-29T06:01:57;97516.47;;;-0.34;76.70
49044;BME280;34860;48.066;14.124;2023-01-29T06:04:46;97512.13;;;-0.35;76.66
49044;BME280;34860;48.066;14.124;2023-01-29T06:07:34;97518.41;;;-0.35;76.75
49044;BME280;34860;48.066;14.124;2023-01-29T06:10:23;97513.28;;;-0.37;76.72
49044;BME280;34860;48.066;14.124;2023-01-29T06:13:12;97519.44;;;-0.40;76.58
49044;BME280;34860;48.066;14.124;2023-01-29T06:16:03;97516.56;;;-0.43;76.75
49044;BME280;34860;48.066;14.124;2023-01-29T06:18:51;97512.38;;;-0.41;76.98
49044;BME280;34860;48.066;14.124;2023-01-29T06:21:39;97520.22;;;-0.39;76.66
49044;BME280;34860;48.066;14.124;2023-01-29T06:24:27;97515.88;;;-0.40;76.65
49044;BME280;34860;48.066;14.124;2023-01-29T06:27:15;97515.88;;;-0.40;76.67
49044;BME280;34860;48.066;14.124;2023-01-29T06:30:06;97505.31;;;-0.42;76.71
49044;BME280;34860;48.066;14.124;2023-01-29T06:32:55;97516.22;;;-0.42;76.61
49044;BME280;34860;48.066;14.124;2023-01-29T06:35:44;97508.72;;;-0.45;76.72
49044;BME280;34860;48.066;14.124;2023-01-29T06:38:32;97505.22;;;-0.45;76.86
49044;BME280;34860;48.066;14.124;2023-01-29T06:41:20;97514.19;;;-0.45;76.72
49044;BME280;34860;48.066;14.124;2023-01-29T06:44:11;97513.75;;;-0.47;76.71
49044;BME280;34860;48.066;14.124;2023-01-29T06:47:00;97513.63;;;-0.50;76.77
49044;BME280;34860;48.066;14.124;2023-01-29T06:49:48;97510.56;;;-0.49;76.79
49044;BME280;34860;48.066;14.124;2023-01-29T06:52:36;97512.84;;;-0.51;76.95
49044;BME280;34860;48.066;14.124;2023-01-29T06:55:24;97517.50;;;-0.51;76.78
49044;BME280;34860;48.066;14.124;2023-01-29T06:58:12;97517.84;;;-0.53;76.84
49044;BME280;34860;48.066;14.124;2023-01-29T07:01:04;97522.06;;;-0.56;76.81
49044;BME280;34860;48.066;14.124;2023-01-29T07:03:55;97516.81;;;-0.61;76.73
49044;BME280;34860;48.066;14.124;2023-01-29T07:06:43;97518.22;;;-0.67;76.89
49044;BME280;34860;48.066;14.124;2023-01-29T07:09:31;97513.44;;;-0.70;76.99
49044;BME280;34860;48.066;14.124;2023-01-29T07:12:19;97518.06;;;-0.70;76.89
49044;BME280;34860;48.066;14.124;2023-01-29T07:15:07;97514.13;;;-0.73;76.78
49044;BME280;34860;48.066;14.124;2023-01-29T07:17:59;97522.31;;;-0.73;77.07
49044;BME280;34860;48.066;14.124;2023-01-29T07:20:48;97521.03;;;-0.76;76.82
49044;BME280;34860;48.066;14.124;2023-01-29T07:23:36;97522.66;;;-0.75;76.83
49044;BME280;34860;48.066;14.124;2023-01-29T07:26:24;97523.53;;;-0.70;76.85
49044;BME280;34860;48.066;14.124;2023-01-29T07:29:13;97524.56;;;-0.75;76.73
49044;BME280;34860;48.066;14.124;2023-01-29T07:32:01;97528.44;;;-0.76;76.91
49044;BME280;34860;48.066;14.124;2023-01-29T07:34:49;97526.84;;;-0.77;76.78
49044;BME280;34860;48.066;14.124;2023-01-29T07:37:39;97519.00;;;-0.79;76.87
49044;BME280;34860;48.066;14.124;2023-01-29T07:40:27;97520.50;;;-0.81;76.73
49044;BME280;34860;48.066;14.124;2023-01-29T07:43:15;97519.81;;;-0.78;76.87
49044;BME280;34860;48.066;14.124;2023-01-29T07:46:03;97519.81;;;-0.78;76.70
49044;BME280;34860;48.066;14.124;2023-01-29T07:48:51;97508.41;;;-0.80;76.75
49044;BME280;34860;48.066;14.124;2023-01-29T07:51:39;97511.16;;;-0.80;76.70
49044;BME280;34860;48.066;14.124;2023-01-29T07:54:29;97501.94;;;-0.76;76.84
49044;BME280;34860;48.066;14.124;2023-01-29T07:57:17;97500.56;;;-0.69;76.79
49044;BME280;34860;48.066;14.124;2023-01-29T08:00:06;97498.75;;;-0.65;76.73
49044;BME280;34860;48.066;14.124;2023-01-29T08:03:02;97497.38;;;-0.59;76.70
49044;BME280;34860;48.066;14.124;2023-01-29T08:05:50;97502.47;;;-0.58;76.67
49044;BME280;34860;48.066;14.124;2023-01-29T08:08:38;97502.97;;;-0.56;76.63
49044;BME280;34860;48.066;14.124;2023-01-29T08:11:28;97511.50;;;-0.57;76.66
49044;BME280;34860;48.066;14.124;2023-01-29T08:14:16;97509.88;;;-0.58;76.80
49044;BME280;34860;48.066;14.124;2023-01-29T08:17:04;97511.84;;;-0.59;76.71
49044;BME280;34860;48.066;14.124;2023-01-29T08:19:52;97516.94;;;-0.57;76.85
49044;BME280;34860;48.066;14.124;2023-01-29T08:22:40;97522.19;;;-0.52;76.85
49044;BME280;34860;48.066;14.124;2023-01-29T08:25:28;97522.63;;;-0.50;76.84
49044;BME280;34860;48.066;14.124;2023-01-29T08:28:18;97528.56;;;-0.48;76.87
49044;BME280;34860;48.066;14.124;2023-01-29T08:31:12;97532.84;;;-0.47;76.75
49044;BME280;34860;48.066;14.124;2023-01-29T08:34:00;97540.59;;;-0.49;76.78
49044;BME280;34860;48.066;14.124;2023-01-29T08:36:48;97545.03;;;-0.44;76.75
49044;BME280;34860;48.066;14.124;2023-01-29T08:39:36;97546.63;;;-0.43;76.78
49044;BME280;34860;48.066;14.124;2023-01-29T08:42:24;97539.78;;;-0.37;76.65
49044;BME280;34860;48.066;14.124;2023-01-29T08:45:14;97556.84;;;-0.28;76.72
49044;BME280;34860;48.066;14.124;2023-01-29T08:48:02;97558.31;;;-0.30;76.68
49044;BME280;34860;48.066;14.124;2023-01-29T08:50:51;97565.38;;;-0.29;76.70
49044;BME280;34860;48.066;14.124;2023-01-29T08:53:39;97567.78;;;-0.28;76.66
49044;BME280;34860;48.066;14.124;2023-01-29T08:56:27;97567.66;;;-0.31;76.75
49044;BME280;34860;48.066;14.124;2023-01-29T08:59:15;97562.22;;;-0.31;76.69
49044;BME280;34860;48.066;14.124;2023-01-29T09:02:04;97571.09;;;-0.34;76.80
49044;BME280;34860;48.066;14.124;2023-01-29T09:04:52;97577.22;;;-0.38;76.88
49044;BME280;34860;48.066;14.124;2023-01-29T09:07:40;97577.69;;;-0.35;76.86
49044;BME280;34860;48.066;14.124;2023-01-29T09:10:28;97574.16;;;-0.36;76.85
49044;BME280;34860;48.066;14.124;2023-01-29T09:13:16;97586.09;;;-0.41;76.96
49044;BME280;34860;48.066;14.124;2023-01-29T09:16:05;97594.53;;;-0.46;76.88
49044;BME280;34860;48.066;14.124;2023-01-29T09:18:54;97591.47;;;-0.44;76.95
49044;BME280;34860;48.066;14.124;2023-01-29T09:21:42;97591.91;;;-0.42;76.89
49044;BME280;34860;48.066;14.124;2023-01-29T09:24:30;97589.97;;;-0.42;76.97
49044;BME280;34860;48.066;14.124;2023-01-29T09:27:20;97597.13;;;-0.37;77.09
49044;BME280;34860;48.066;14.124;2023-01-29T09:30:09;97587.25;;;-0.29;76.91
49044;BME280;34860;48.066;14.124;2023-01-29T09:32:59;97597.59;;;-0.23;77.03
49044;BME280;34860;48.066;14.124;2023-01-29T09:35:49;97605.44;;;-0.09;76.66
49044;BME280;34860;48.066;14.124;2023-01-29T09:38:39;97600.88;;;-0.05;76.60
49044;BME280;34860;48.066;14.124;2023-01-29T09:41:37;97595.06;;;-0.03;76.65
49044;BME280;34860;48.066;14.124;2023-01-29T09:44:44;97597.00;;;-0.04;76.71
49044;BME280;34860;48.066;14.124;2023-01-29T09:47:34;97590.97;;;-0.09;76.73
49044;BME280;34860;48.066;14.124;2023-01-29T09:50:27;97585.28;;;-0.16;76.79
49044;BME280;34860;48.066;14.124;2023-01-29T09:53:20;97591.22;;;-0.27;76.68
49044;BME280;34860;48.066;14.124;2023-01-29T09:56:13;97596.69;;;-0.27;77.19
49044;BME280;34860;48.066;14.124;2023-01-29T09:59:02;97604.66;;;-0.22;76.96
49044;BME280;34860;48.066;14.124;2023-01-29T10:01:58;97599.97;;;-0.21;76.93
49044;BME280;34860;48.066;14.124;2023-01-29T10:05:11;97598.84;;;-0.20;76.98
49044;BME280;34860;48.066;14.124;2023-01-29T10:08:27;97596.91;;;-0.20;76.80
49044;BME280;34860;48.066;14.124;2023-01-29T10:11:27;97599.75;;;-0.28;76.81
49044;BME280;34860;48.066;14.124;2023-01-29T10:14:29;97597.03;;;-0.28;76.89
49044;BME280;34860;48.066;14.124;2023-01-29T10:17:34;97610.78;;;-0.25;76.83
49044;BME280;34860;48.066;14.124;2023-01-29T10:20:36;97608.16;;;-0.21;76.88
49044;BME280;34860;48.066;14.124;2023-01-29T10:23:32;97610.22;;;-0.18;76.84
49044;BME280;34860;48.066;14.124;2023-01-29T10:26:42;97607.28;;;-0.25;76.82
49044;BME280;34860;48.066;14.124;2023-01-29T10:29:31;97611.47;;;-0.28;76.84
49044;BME280;34860;48.066;14.124;2023-01-29T10:36:14;97610.78;;;-0.25;76.71
49044;BME280;34860;48.066;14.124;2023-01-29T10:39:14;97598.41;;;-0.22;76.85
49044;BME280;34860;48.066;14.124;2023-01-29T10:42:11;97597.72;;;-0.19;76.85
49044;BME280;34860;48.066;14.124;2023-01-29T10:45:11;97591.56;;;-0.16;76.87
49044;BME280;34860;48.066;14.124;2023-01-29T10:48:26;97588.25;;;-0.09;76.87
49044;BME280;34860;48.066;14.124;2023-01-29T10:51:32;97587.91;;;-0.08;76.86
49044;BME280;34860;48.066;14.124;2023-01-29T10:54:36;97578.09;;;-0.09;76.77
49044;BME280;34860;48.066;14.124;2023-01-29T10:57:41;97576.84;;;-0.11;76.77
49044;BME280;34860;48.066;14.124;2023-01-29T11:00:36;97568.66;;;-0.11;76.77
49044;BME280;34860;48.066;14.124;2023-01-29T11:03:27;97564.34;;;-0.12;76.75
49044;BME280;34860;48.066;14.124;2023-01-29T11:06:18;97560.81;;;-0.13;76.71
49044;BME280;34860;48.066;14.124;2023-01-29T11:09:17;97557.19;;;-0.17;76.91
49044;BME280;34860;48.066;14.124;2023-01-29T11:12:12;97548.97;;;-0.17;76.82
49044;BME280;34860;48.066;14.124;2023-01-29T11:15:05;97544.75;;;-0.14;77.00
49044;BME280;34860;48.066;14.124;2023-01-29T11:18:01;97541.81;;;-0.09;77.00
49044;BME280;34860;48.066;14.124;2023-01-29T11:20:59;97531.41;;;-0.04;76.75
49044;BME280;34860;48.066;14.124;2023-01-29T11:23:48;97525.69;;;0.02;76.61
49044;BME280;34860;48.066;14.124;2023-01-29T11:26:38;97519.66;;;0.08;76.65
49044;BME280;34860;48.066;14.124;2023-01-29T11:29:33;97523.19;;;0.09;76.62
49044;BME280;34860;48.066;14.124;2023-01-29T11:32:25;97517.47;;;0.14;76.69
49044;BME280;34860;48.066;14.124;2023-01-29T11:35:23;97510.63;;;0.20;76.79
49044;BME280;34860;48.066;14.124;2023-01-29T11:38:56;97509.00;;;0.19;76.54
49044;BME280;34860;48.066;14.124;2023-01-29T11:41:26;97509.28;;;0.14;76.59
49044;BME280;34860;48.066;14.124;2023-01-29T11:44:30;97501.63;;;0.20;76.82
49044;BME280;34860;48.066;14.124;2023-01-29T11:47:22;97498.56;;;0.21;76.63
49044;BME280;34860;48.066;14.124;2023-01-29T11:50:20;97495.13;;;0.24;76.62
49044;BME280;34860;48.066;14.124;2023-01-29T11:53:22;97490.09;;;0.26;76.72
49044;BME280;34860;48.066;14.124;2023-01-29T11:56:18;97483.59;;;0.31;76.67
49044;BME280;34860;48.066;14.124;2023-01-29T11:59:14;97477.84;;;0.36;76.53
49044;BME280;34860;48.066;14.124;2023-01-29T12:02:22;97477.84;;;0.36;76.35
49044;BME280;34860;48.066;14.124;2023-01-29T12:05:15;97475.13;;;0.36;76.49
49044;BME280;34860;48.066;14.124;2023-01-29T12:08:13;97482.19;;;0.37;76.65
49044;BME280;34860;48.066;14.124;2023-01-29T12:11:07;97464.97;;;0.36;76.53
49044;BME280;34860;48.066;14.124;2023-01-29T12:13:57;97459.84;;;0.35;76.73
49044;BME280;34860;48.066;14.124;2023-01-29T12:16:51;97457.13;;;0.35;76.70
49044;BME280;34860;48.066;14.124;2023-01-29T12:19:46;97452.47;;;0.35;76.60
49044;BME280;34860;48.066;14.124;2023-01-29T12:22:41;97452.81;;;0.34;76.63
49044;BME280;34860;48.066;14.124;2023-01-29T12:25:41;97452.13;;;0.37;76.61
49044;BME280;34860;48.066;14.124;2023-01-29T12:28:41;97446.38;;;0.42;76.81
49044;BME280;34860;48.066;14.124;2023-01-29T12:31:36;97446.13;;;0.47;76.75
49044;BME280;34860;48.066;14.124;2023-01-29T12:34:34;97434.75;;;0.45;76.58
49044;BME280;34860;48.066;14.124;2023-01-29T12:37:35;97431.81;;;0.38;76.53
49044;BME280;34860;48.066;14.124;2023-01-29T12:40:28;97423.25;;;0.40;76.79
49044;BME280;34860;48.066;14.124;2023-01-29T12:43:21;97425.63;;;0.41;76.63
49044;BME280;34860;48.066;14.124;2023-01-29T12:46:17;97420.28;;;0.45;76.63
49044;BME280;34860;48.066;14.124;2023-01-29T12:49:12;97407.19;;;0.38;76.76
49044;BME280;34860;48.066;14.124;2023-01-29T12:52:08;97408.19;;;0.46;76.54
49044;BME280;34860;48.066;14.124;2023-01-29T12:55:06;97405.09;;;0.47;76.68
49044;BME280;34860;48.066;14.124;2023-01-29T12:57:59;97408.19;;;0.46;76.65
49044;BME280;34860;48.066;14.124;2023-01-29T13:00:50;97393.81;;;0.49;76.70
49044;BME280;34860;48.066;14.124;2023-01-29T13:03:48;97387.00;;;0.59;76.53
49044;BME280;34860;48.066;14.124;2023-01-29T13:06:40;97374.31;;;0.66;76.43
49044;BME280;34860;48.066;14.124;2023-01-29T13:09:31;97359.56;;;0.71;76.56
49044;BME280;34860;48.066;14.124;2023-01-29T13:12:22;97373.31;;;0.75;76.48
49044;BME280;34860;48.066;14.124;2023-01-29T13:15:20;97371.41;;;0.75;76.43
49044;BME280;34860;48.066;14.124;2023-01-29T13:18:41;97361.94;;;0.72;76.35
49044;BME280;34860;48.066;14.124;2023-01-29T13:21:36;97365.81;;;0.71;76.44
49044;BME280;34860;48.066;14.124;2023-01-29T13:24:32;97361.16;;;0.72;76.51
49044;BME280;34860;48.066;14.124;2023-01-29T13:27:24;97363.91;;;0.72;76.61
49044;BME280;34860;48.066;14.124;2023-01-29T13:30:24;97373.06;;;0.64;76.55
49044;BME280;34860;48.066;14.124;2023-01-29T13:33:18;97363.63;;;0.61;76.48
49044;BME280;34860;48.066;14.124;2023-01-29T13:36:14;97360.56;;;0.63;76.61
49044;BME280;34860;48.066;14.124;2023-01-29T13:39:05;97353.84;;;0.60;76.44
49044;BME280;34860;48.066;14.124;2023-01-29T13:41:55;97360.47;;;0.59;76.49
49044;BME280;34860;48.066;14.124;2023-01-29T13:44:48;97365.66;;;0.64;76.50
49044;BME280;34860;48.066;14.124;2023-01-29T13:47:38;97372.28;;;0.63;76.54
49044;BME280;34860;48.066;14.124;2023-01-29T13:50:31;97369.97;;;0.65;76.50
49044;BME280;34860;48.066;14.124;2023-01-29T13:53:23;97367.34;;;0.69;76.48
49044;BME280;34860;48.066;14.124;2023-01-29T13:56:42;97367.00;;;0.70;76.37
49044;BME280;34860;48.066;14.124;2023-01-29T13:59:52;97370.94;;;0.73;76.55
49044;BME280;34860;48.066;14.124;2023-01-29T14:02:41;97366.63;;;0.72;76.45
49044;BME280;34860;48.066;14.124;2023-01-29T14:05:37;97363.91;;;0.72;76.54
49044;BME280;34860;48.066;14.124;2023-01-29T14:08:38;97364.34;;;0.74;76.42
49044;BME280;34860;48.066;14.124;2023-01-29T14:11:34;97363.09;;;0.71;76.38
49044;BME280;34860;48.066;14.124;2023-01-29T14:18:16;97352.25;;;0.75;76.49
49044;BME280;34860;48.066;14.124;2023-01-29T14:21:10;97347.91;;;0.74;76.52
49044;BME280;34860;48.066;14.124;2023-01-29T14:24:15;97342.72;;;0.69;76.45
49044;BME280;34860;48.066;14.124;2023-01-29T14:27:05;97352.00;;;0.64;76.56
49044;BME280;34860;48.066;14.124;2023-01-29T14:30:06;97350.47;;;0.67;76.62
49044;BME280;34860;48.066;14.124;2023-01-29T14:32:58;97346.59;;;0.68;76.50
49044;BME280;34860;48.066;14.124;2023-01-29T14:35:48;97346.59;;;0.68;76.51
49044;BME280;34860;48.066;14.124;2023-01-29T14:38:38;97343.44;;;0.66;76.47
49044;BME280;34860;48.066;14.124;2023-01-29T14:41:29;97331.69;;;0.65;76.58
49044;BME280;34860;48.066;14.124;2023-01-29T14:44:59;97325.84;;;0.67;76.60
49044;BME280;34860;48.066;14.124;2023-01-29T14:48:02;97327.09;;;0.69;76.35
49044;BME280;34860;48.066;14.124;2023-01-29T14:50:52;97327.38;;;0.64;76.49
49044;BME280;34860;48.066;14.124;2023-01-29T14:53:53;97332.84;;;0.64;76.42
49044;BME280;34860;48.066;14.124;2023-01-29T14:56:47;97321.09;;;0.64;76.63
49044;BME280;34860;48.066;14.124;2023-01-29T14:59:47;97333.97;;;0.63;76.09
49044;BME280;34860;48.066;14.124;2023-01-29T15:02:37;97316.72;;;0.59;76.43
49044;BME280;34860;48.066;14.124;2023-01-29T15:05:30;97318.13;;;0.53;76.56
49044;BME280;34860;48.066;14.124;2023-01-29T15:08:24;97326.22;;;0.49;76.62
49044;BME280;34860;48.066;14.124;2023-01-29T15:11:22;97309.75;;;0.46;76.68
49044;BME280;34860;48.066;14.124;2023-01-29T15:14:28;97328.59;;;0.51;76.58
49044;BME280;34860;48.066;14.124;2023-01-29T15:17:24;97334.88;;;0.51;76.45
49044;BME280;34860;48.066;14.124;2023-01-29T15:20:30;97335.69;;;0.52;76.59